Time;durP1;ratioP1;P1;durP2;ratioP2;P2;SDS_P1;SDS_P2;PMS_P1;PMS_P2;Temp;Humidity;BMP_temperature;BMP_pressure;BME280_temperature;BME280_humidity;BME280_pressure;Samples;Min_cycle;Max_cycle;Signal;HPM_P1;HPM_P2
2023/12/10 00:00:57;;;;;;;22.25;4.47;;;7.90;99.90;;;;;;4982089;28;20128;-86
2023/12/10 00:03:22;;;;;;;34.70;4.70;;;7.80;99.90;;;;;;4995208;28;20136;-86
2023/12/10 00:05:48;;;;;;;26.05;3.47;;;7.80;99.90;;;;;;4994604;28;20449;-86
2023/12/10 00:08:14;;;;;;;29.92;4.35;;;7.80;99.90;;;;;;4994807;28;20046;-86
2023/12/10 00:10:40;;;;;;;28.48;4.53;;;7.80;99.90;;;;;;4990331;28;20034;-86
2023/12/10 00:13:06;;;;;;;28.60;3.55;;;7.80;99.90;;;;;;4992517;28;20093;-87
2023/12/10 00:15:31;;;;;;;30.70;4.40;;;7.90;99.90;;;;;;4975719;28;20517;-85
2023/12/10 00:17:57;;;;;;;34.63;4.63;;;7.90;99.90;;;;;;4975566;28;20141;-85
2023/12/10 00:20:25;;;;;;;24.98;3.95;;;7.90;99.90;;;;;;4974960;28;20458;-86
2023/12/10 00:22:50;;;;;;;22.67;4.07;;;8.00;99.90;;;;;;4975233;28;20038;-86
2023/12/10 00:25:16;;;;;;;30.50;4.97;;;8.00;99.90;;;;;;4992121;28;20093;-86
2023/12/10 00:27:42;;;;;;;37.80;4.63;;;8.00;99.90;;;;;;4992891;28;20446;-86
2023/12/10 00:30:08;;;;;;;24.25;4.82;;;8.00;99.90;;;;;;4975255;28;20057;-86
2023/12/10 00:32:34;;;;;;;27.00;5.38;;;8.10;99.90;;;;;;4991150;28;20042;-86
2023/12/10 00:35:03;;;;;;;24.55;4.18;;;8.10;99.90;;;;;;4992639;28;20049;-85
2023/12/10 00:37:28;;;;;;;36.60;4.15;;;8.20;99.90;;;;;;4975134;28;20455;-86
2023/12/10 00:39:55;;;;;;;33.42;4.90;;;8.10;99.90;;;;;;4978723;28;20058;-86
2023/12/10 00:42:21;;;;;;;27.27;4.35;;;8.10;99.90;;;;;;5012247;28;20046;-86
2023/12/10 00:44:47;;;;;;;28.67;4.85;;;8.20;99.90;;;;;;4994516;28;20107;-86
2023/12/10 00:47:12;;;;;;;29.45;4.43;;;8.20;99.90;;;;;;4994475;28;20045;-86
2023/12/10 00:49:38;;;;;;;30.90;3.90;;;8.20;99.90;;;;;;4994503;28;20520;-87
2023/12/10 00:52:04;;;;;;;27.48;4.47;;;8.10;99.90;;;;;;4994729;28;20044;-86
2023/12/10 00:54:32;;;;;;;33.03;4.30;;;8.10;99.90;;;;;;4996898;28;20491;-86
2023/12/10 00:56:59;;;;;;;27.48;4.70;;;8.10;99.90;;;;;;4998200;28;20050;-86
2023/12/10 00:59:25;;;;;;;24.83;4.80;;;8.10;99.90;;;;;;4997927;28;20077;-86
2023/12/10 01:01:50;;;;;;;26.02;4.03;;;8.10;99.90;;;;;;4981947;28;20151;-87
2023/12/10 01:04:16;;;;;;;28.13;3.40;;;8.10;99.90;;;;;;5015404;28;20132;-86
2023/12/10 01:06:42;;;;;;;26.17;3.92;;;8.10;99.90;;;;;;4997390;28;20383;-86
2023/12/10 01:09:08;;;;;;;22.13;3.65;;;7.70;99.90;;;;;;4981468;28;20092;-86
2023/12/10 01:11:35;;;;;;;28.30;4.22;;;8.10;99.90;;;;;;4998818;28;20041;-85
2023/12/10 01:14:02;;;;;;;33.20;4.70;;;8.10;99.90;;;;;;4981359;28;20561;-86
2023/12/10 01:16:28;;;;;;;20.83;3.08;;;8.10;99.90;;;;;;4997933;28;20096;-86
2023/12/10 01:18:54;;;;;;;29.27;3.50;;;8.00;99.90;;;;;;4982668;28;20498;-86
2023/12/10 01:21:20;;;;;;;16.58;2.90;;;8.00;99.90;;;;;;4981090;28;20032;-86
2023/12/10 01:23:45;;;;;;;25.90;3.80;;;8.00;99.90;;;;;;4998228;28;20072;-87
2023/12/10 01:26:14;;;;;;;26.02;3.60;;;7.90;99.90;;;;;;5001231;28;20421;-86
2023/12/10 01:28:40;;;;;;;22.88;3.75;;;7.90;99.90;;;;;;5016630;28;20136;-86
2023/12/10 01:31:05;;;;;;;22.30;3.38;;;7.90;99.90;;;;;;5015246;28;20088;-86
2023/12/10 01:33:32;;;;;;;19.05;2.88;;;7.90;99.90;;;;;;5017456;28;20037;-86
2023/12/10 01:35:57;;;;;;;26.23;3.90;;;7.90;99.90;;;;;;5029018;28;20053;-86
2023/12/10 01:38:23;;;;;;;27.85;3.30;;;7.90;99.90;;;;;;5014897;28;20418;-86
2023/12/10 01:40:49;;;;;;;32.17;3.72;;;7.90;99.90;;;;;;5013427;28;20053;-86
2023/12/10 01:43:17;;;;;;;25.00;3.55;;;7.90;99.90;;;;;;4997138;28;20054;-86
2023/12/10 01:45:48;;;;;;;29.92;4.00;;;7.80;99.90;;;;;;4997314;28;20046;-86
2023/12/10 01:48:15;;;;;;;23.17;3.35;;;7.80;99.90;;;;;;4997090;28;20089;-86
2023/12/10 01:50:42;;;;;;;27.92;3.72;;;7.80;99.90;;;;;;4983488;28;20045;-86
2023/12/10 01:53:08;;;;;;;32.08;3.92;;;7.80;99.90;;;;;;4996900;28;20129;-86
2023/12/10 01:55:34;;;;;;;30.25;5.30;;;7.70;99.90;;;;;;4997291;28;20050;-87
2023/12/10 01:58:04;;;;;;;27.27;3.70;;;7.80;99.90;;;;;;4996934;28;20506;-87
2023/12/10 02:00:30;;;;;;;29.98;4.13;;;7.70;99.90;;;;;;5013654;28;20042;-86
2023/12/10 02:02:56;;;;;;;22.45;3.55;;;7.80;99.90;;;;;;4979455;28;20127;-86
2023/12/10 02:05:23;;;;;;;30.65;3.53;;;7.70;99.90;;;;;;4964165;28;20431;-86
2023/12/10 02:07:49;;;;;;;19.95;3.65;;;7.70;99.90;;;;;;4961000;28;20053;-86
2023/12/10 02:10:15;;;;;;;26.00;3.65;;;7.70;99.90;;;;;;4977286;28;20046;-86
2023/12/10 02:12:43;;;;;;;34.08;3.70;;;7.70;99.90;;;;;;4977917;28;20034;-85
2023/12/10 02:15:17;;;;;;;29.35;5.18;;;7.70;99.90;;;;;;4961123;28;20499;-86
2023/12/10 02:17:44;;;;;;;26.90;3.65;;;7.70;99.90;;;;;;4976877;28;20042;-86
2023/12/10 02:20:12;;;;;;;24.70;3.08;;;7.70;99.90;;;;;;4977022;28;20042;-87
2023/12/10 02:23:10;;;;;;;26.30;3.97;;;7.70;99.90;;;;;;4981525;28;20040;-86
2023/12/10 02:25:39;;;;;;;21.33;3.28;;;7.70;99.90;;;;;;4953382;29;20070;-86
2023/12/10 02:28:07;;;;;;;21.33;3.38;;;7.70;99.90;;;;;;4953563;29;20055;-86
2023/12/10 02:30:35;;;;;;;20.33;3.65;;;7.70;99.90;;;;;;4953336;29;20119;-86
2023/12/10 02:33:01;;;;;;;25.60;3.30;;;7.70;99.90;;;;;;4923981;29;20053;-86
2023/12/10 02:35:27;;;;;;;23.67;2.97;;;7.60;99.90;;;;;;4918476;29;20215;-86
2023/12/10 02:37:53;;;;;;;21.85;3.33;;;7.70;99.90;;;;;;4934056;29;20044;-86
2023/12/10 02:40:19;;;;;;;26.48;3.85;;;7.30;99.90;;;;;;4925164;29;20070;-86
2023/12/10 02:42:46;;;;;;;37.53;3.95;;;7.60;99.90;;;;;;4953225;29;20074;-86
2023/12/10 02:45:12;;;;;;;14.68;2.53;;;7.60;99.90;;;;;;4950254;29;20400;-85
2023/12/10 02:47:38;;;;;;;20.80;2.80;;;7.70;99.90;;;;;;4937132;29;20579;-86
2023/12/10 02:50:05;;;;;;;28.13;3.83;;;7.60;99.90;;;;;;4937089;29;20059;-86
2023/12/10 02:52:32;;;;;;;19.05;3.47;;;7.70;99.90;;;;;;4937219;29;20058;-86
2023/12/10 02:54:58;;;;;;;23.23;3.53;;;7.60;99.90;;;;;;4953620;28;20078;-86
2023/12/10 02:57:24;;;;;;;21.48;3.13;;;7.70;99.90;;;;;;4934849;29;20047;-86
2023/12/10 02:59:49;;;;;;;28.38;2.78;;;7.70;99.90;;;;;;4937110;29;20496;-86
2023/12/10 03:02:15;;;;;;;23.25;2.97;;;7.70;99.90;;;;;;4970194;28;20539;-86
2023/12/10 03:04:41;;;;;;;22.92;3.53;;;7.70;99.90;;;;;;4993146;28;20043;-86
2023/12/10 03:07:07;;;;;;;20.20;2.95;;;7.70;99.90;;;;;;4991884;28;20112;-86
2023/12/10 03:09:32;;;;;;;24.20;3.42;;;7.70;99.90;;;;;;4993693;28;20065;-86
2023/12/10 03:11:58;;;;;;;19.10;3.20;;;7.60;99.90;;;;;;4976243;28;20053;-86
2023/12/10 03:14:24;;;;;;;20.00;2.97;;;7.70;99.90;;;;;;4994440;28;20046;-86
2023/12/10 03:16:49;;;;;;;21.63;3.20;;;7.60;99.90;;;;;;4985711;28;20042;-86
2023/12/10 03:19:15;;;;;;;18.35;1.88;;;7.60;99.90;;;;;;4993476;28;20055;-86
2023/12/10 03:21:41;;;;;;;21.10;3.08;;;7.60;99.90;;;;;;4992356;28;20072;-86
2023/12/10 03:24:07;;;;;;;15.20;3.30;;;7.60;99.90;;;;;;4991231;28;20129;-86
2023/12/10 03:26:32;;;;;;;20.48;2.80;;;7.60;99.90;;;;;;4975288;28;20077;-85
2023/12/10 03:28:58;;;;;;;18.63;2.38;;;7.60;99.90;;;;;;4976134;28;20054;-86
2023/12/10 03:31:24;;;;;;;20.98;2.63;;;7.50;99.90;;;;;;4993498;28;20046;-86
2023/12/10 03:33:50;;;;;;;11.30;2.17;;;7.60;99.90;;;;;;4992348;28;20047;-86
2023/12/10 03:36:17;;;;;;;12.73;2.42;;;7.50;99.90;;;;;;4979936;28;20084;-86
2023/12/10 03:38:43;;;;;;;13.98;2.15;;;7.60;99.90;;;;;;4993275;28;20078;-86
2023/12/10 03:41:09;;;;;;;14.63;2.58;;;7.60;99.90;;;;;;4975613;28;20116;-86
2023/12/10 03:43:34;;;;;;;19.95;2.78;;;7.60;99.90;;;;;;4993290;28;20491;-86
2023/12/10 03:46:00;;;;;;;17.40;2.20;;;7.40;99.90;;;;;;4975756;28;20405;-86
2023/12/10 03:48:26;;;;;;;16.00;2.63;;;7.50;99.90;;;;;;4991392;28;20057;-87
2023/12/10 03:50:51;;;;;;;13.43;2.00;;;7.50;99.90;;;;;;4991840;28;20038;-86
2023/12/10 03:53:17;;;;;;;12.52;2.25;;;7.50;99.90;;;;;;4975043;28;20141;-86
2023/12/10 03:55:43;;;;;;;14.82;1.70;;;7.50;99.90;;;;;;4959522;28;20395;-86
2023/12/10 03:58:09;;;;;;;10.65;1.70;;;7.50;99.90;;;;;;4978341;28;20046;-86
2023/12/10 04:00:35;;;;;;;11.50;1.33;;;7.50;99.90;;;;;;5012695;28;20042;-86
2023/12/10 04:03:00;;;;;;;14.80;2.20;;;7.50;99.90;;;;;;4994713;28;20038;-85
2023/12/10 04:05:26;;;;;;;8.50;1.52;;;7.50;99.90;;;;;;5012512;28;20398;-85
2023/12/10 04:07:52;;;;;;;12.73;1.45;;;7.50;99.90;;;;;;5007046;28;20503;-86
2023/12/10 04:10:18;;;;;;;8.60;1.67;;;7.50;99.90;;;;;;5012176;28;20446;-86
2023/12/10 04:12:44;;;;;;;13.30;1.33;;;7.60;99.90;;;;;;5012600;28;20042;-86
2023/12/10 04:15:10;;;;;;;6.88;1.20;;;7.60;99.90;;;;;;4994824;28;20050;-87
2023/12/10 04:17:36;;;;;;;5.55;1.08;;;7.60;99.90;;;;;;4995157;28;20056;-86
2023/12/10 04:20:03;;;;;;;12.02;1.65;;;7.60;99.90;;;;;;5010374;28;20113;-86
2023/12/10 04:22:28;;;;;;;4.07;0.65;;;7.60;99.90;;;;;;4974836;28;20049;-86
2023/12/10 04:24:54;;;;;;;6.63;1.40;;;7.60;99.90;;;;;;4991557;28;20387;-86
2023/12/10 04:27:23;;;;;;;8.70;1.15;;;7.70;99.90;;;;;;4991618;28;20042;-86
2023/12/10 04:29:49;;;;;;;6.05;1.17;;;7.70;99.90;;;;;;4997043;28;20042;-86
2023/12/10 04:32:15;;;;;;;5.40;1.30;;;7.70;99.90;;;;;;5010504;28;20049;-86
2023/12/10 04:34:40;;;;;;;12.40;1.48;;;7.70;99.90;;;;;;5016071;28;20042;-87
2023/12/10 04:37:06;;;;;;;8.35;1.27;;;7.70;99.90;;;;;;4988541;28;20043;-86
2023/12/10 04:39:32;;;;;;;11.82;1.75;;;7.90;99.90;;;;;;4995911;28;20129;-86
2023/12/10 04:41:58;;;;;;;6.78;1.15;;;7.70;99.90;;;;;;4982957;28;20196;-86
2023/12/10 04:44:24;;;;;;;9.43;1.30;;;7.70;99.90;;;;;;4998581;28;20050;-86
2023/12/10 04:46:49;;;;;;;9.00;1.15;;;7.70;99.90;;;;;;4998601;28;20125;-87
2023/12/10 04:49:15;;;;;;;12.77;1.25;;;7.70;99.90;;;;;;5015890;28;20056;-86
2023/12/10 04:51:41;;;;;;;14.23;1.65;;;7.80;99.90;;;;;;5015053;28;20372;-86
2023/12/10 04:54:06;;;;;;;9.30;1.13;;;7.80;99.90;;;;;;5015120;28;20391;-86
2023/12/10 04:56:32;;;;;;;12.07;1.40;;;7.80;99.90;;;;;;4997760;28;20121;-86
2023/12/10 04:58:58;;;;;;;17.58;1.73;;;7.80;99.90;;;;;;5005821;28;20104;-86
2023/12/10 05:01:24;;;;;;;14.40;1.45;;;7.80;99.90;;;;;;5015950;28;20120;-86
2023/12/10 05:03:50;;;;;;;9.23;1.77;;;7.80;99.90;;;;;;5014281;28;20574;-85
2023/12/10 05:06:16;;;;;;;9.23;1.20;;;7.80;99.90;;;;;;5013855;28;20096;-86
2023/12/10 05:08:42;;;;;;;11.32;1.38;;;7.80;99.90;;;;;;5013432;28;20045;-86
2023/12/10 05:11:08;;;;;;;13.85;1.60;;;7.80;99.90;;;;;;5003929;28;20052;-86
2023/12/10 05:13:34;;;;;;;17.52;1.73;;;7.80;99.90;;;;;;5015402;28;20133;-86
2023/12/10 05:15:59;;;;;;;7.30;1.00;;;7.90;99.90;;;;;;4997663;28;20049;-86
2023/12/10 05:18:25;;;;;;;13.27;1.05;;;7.90;99.90;;;;;;4997575;28;20112;-85
2023/12/10 05:20:51;;;;;;;12.23;0.90;;;7.80;99.90;;;;;;4998758;28;20088;-86
2023/12/10 05:23:17;;;;;;;11.85;1.30;;;7.90;99.90;;;;;;4981113;28;20042;-85
2023/12/10 05:25:43;;;;;;;8.75;1.23;;;7.80;99.90;;;;;;4981623;28;20110;-86
2023/12/10 05:28:09;;;;;;;11.35;1.13;;;7.80;99.90;;;;;;5015052;28;20530;-86
2023/12/10 05:30:34;;;;;;;7.80;0.85;;;7.90;99.90;;;;;;5014618;28;20085;-86
2023/12/10 05:33:00;;;;;;;8.93;0.80;;;7.90;99.90;;;;;;4997055;28;20046;-86
2023/12/10 05:35:26;;;;;;;8.45;0.90;;;7.90;99.90;;;;;;5014872;28;20081;-85
2023/12/10 05:37:52;;;;;;;7.47;1.15;;;8.00;99.90;;;;;;5014751;28;20038;-85
2023/12/10 05:40:18;;;;;;;6.97;0.95;;;7.90;99.90;;;;;;5021237;28;20060;-85
2023/12/10 05:42:43;;;;;;;13.70;1.70;;;7.80;99.90;;;;;;5000535;28;20490;-85
2023/12/10 05:45:09;;;;;;;7.18;1.05;;;7.90;99.90;;;;;;4963227;28;20401;-86
2023/12/10 05:47:35;;;;;;;11.13;0.88;;;7.80;99.90;;;;;;4977954;28;20058;-86
2023/12/10 05:50:01;;;;;;;6.78;1.15;;;7.90;99.90;;;;;;5007397;28;20081;-85
2023/12/10 05:52:27;;;;;;;7.03;0.80;;;7.90;99.90;;;;;;4996939;28;20104;-86
2023/12/10 05:54:52;;;;;;;6.28;1.02;;;7.90;99.90;;;;;;4997123;28;20049;-86
2023/12/10 05:57:18;;;;;;;10.70;1.20;;;7.90;99.90;;;;;;4997072;28;20053;-85
2023/12/10 05:59:44;;;;;;;9.18;1.55;;;7.80;99.90;;;;;;4981350;28;20044;-85
2023/12/10 06:02:10;;;;;;;14.10;1.58;;;7.80;99.90;;;;;;5020705;28;20100;-85
2023/12/10 06:04:36;;;;;;;12.07;1.60;;;7.80;99.90;;;;;;4996793;28;20050;-85
2023/12/10 06:07:01;;;;;;;12.32;1.27;;;7.90;99.90;;;;;;5014089;28;20451;-86
2023/12/10 06:09:27;;;;;;;14.63;1.27;;;7.90;99.90;;;;;;4996541;28;20380;-86
2023/12/10 06:11:53;;;;;;;18.15;1.80;;;7.90;99.90;;;;;;4981667;28;20042;-85
2023/12/10 06:14:20;;;;;;;19.08;1.90;;;7.90;99.90;;;;;;4996948;28;20049;-86
2023/12/10 06:16:45;;;;;;;20.58;2.28;;;7.90;99.90;;;;;;5013500;28;20125;-86
2023/12/10 06:19:11;;;;;;;19.40;2.33;;;7.80;99.90;;;;;;4980386;28;20096;-85
2023/12/10 06:21:37;;;;;;;19.42;2.03;;;7.90;99.90;;;;;;4997334;28;20042;-86
2023/12/10 06:24:04;;;;;;;19.45;1.85;;;8.00;99.90;;;;;;5013964;28;20422;-86
2023/12/10 06:26:30;;;;;;;17.85;1.88;;;8.00;99.90;;;;;;4996632;28;20049;-85
2023/12/10 06:28:56;;;;;;;16.38;1.98;;;7.90;99.90;;;;;;4980357;28;20048;-85
2023/12/10 06:31:21;;;;;;;15.27;2.25;;;7.90;99.90;;;;;;5013180;28;20510;-85
2023/12/10 06:33:47;;;;;;;24.90;2.97;;;8.00;99.90;;;;;;5005970;28;20045;-85
2023/12/10 06:36:13;;;;;;;24.15;2.72;;;7.90;99.90;;;;;;4989132;28;20100;-86
2023/12/10 06:38:39;;;;;;;23.27;2.45;;;8.00;99.90;;;;;;4976670;28;20046;-85
2023/12/10 06:41:05;;;;;;;26.58;2.72;;;8.00;99.90;;;;;;4981321;28;20061;-85
2023/12/10 06:43:31;;;;;;;22.90;2.58;;;8.00;99.90;;;;;;4996034;28;20049;-86
2023/12/10 06:46:00;;;;;;;28.73;2.50;;;8.00;99.90;;;;;;5022960;28;20096;-86
2023/12/10 06:48:26;;;;;;;31.30;3.35;;;8.00;99.90;;;;;;4979969;28;20100;-85
2023/12/10 06:50:55;;;;;;;28.75;3.20;;;8.00;99.90;;;;;;4979484;28;20372;-86
2023/12/10 06:53:22;;;;;;;23.30;3.22;;;8.00;99.90;;;;;;5011070;28;20049;-86
2023/12/10 06:55:48;;;;;;;34.58;3.50;;;8.00;99.90;;;;;;5014661;28;20395;-87
2023/12/10 06:58:14;;;;;;;26.67;2.80;;;8.00;99.90;;;;;;5015693;28;20046;-86
2023/12/10 07:00:40;;;;;;;35.78;3.70;;;8.00;99.90;;;;;;5010851;28;20104;-86
2023/12/10 07:03:06;;;;;;;25.73;4.57;;;8.00;99.90;;;;;;5032169;28;20037;-86
2023/12/10 07:05:31;;;;;;;29.02;3.72;;;8.00;99.90;;;;;;4979341;28;20589;-86
2023/12/10 07:07:57;;;;;;;22.40;3.17;;;8.00;99.90;;;;;;5012892;28;20034;-86
2023/12/10 07:10:23;;;;;;;30.20;4.13;;;8.00;99.90;;;;;;4995803;28;20136;-85
2023/12/10 07:12:53;;;;;;;27.40;3.53;;;8.10;99.90;;;;;;4991479;28;20041;-86
2023/12/10 07:15:19;;;;;;;28.38;3.35;;;8.10;99.90;;;;;;5015151;28;20067;-86
2023/12/10 07:17:44;;;;;;;29.27;3.78;;;8.10;99.90;;;;;;5015246;28;20187;-85
2023/12/10 07:20:11;;;;;;;31.90;4.05;;;8.10;99.90;;;;;;5015067;28;20128;-85
2023/12/10 07:22:36;;;;;;;19.42;3.78;;;8.10;99.90;;;;;;5031216;28;20041;-86
2023/12/10 07:25:05;;;;;;;35.60;4.45;;;8.00;99.90;;;;;;4994854;28;20192;-85
2023/12/10 07:27:32;;;;;;;29.83;3.72;;;8.10;99.90;;;;;;4979121;28;20202;-86
2023/12/10 07:29:58;;;;;;;16.15;2.22;;;8.10;99.90;;;;;;5012225;28;20036;-86
2023/12/10 07:32:24;;;;;;;34.00;3.60;;;8.10;99.90;;;;;;5013249;28;20132;-86
2023/12/10 07:34:50;;;;;;;32.65;4.32;;;8.10;99.90;;;;;;5013843;28;20375;-87
2023/12/10 07:37:16;;;;;;;27.50;3.63;;;8.10;99.90;;;;;;4995297;28;20096;-88
2023/12/10 07:39:42;;;;;;;27.88;3.95;;;8.10;99.90;;;;;;4993573;28;20403;-86
2023/12/10 07:42:07;;;;;;;32.47;3.63;;;8.10;99.90;;;;;;4994909;28;20057;-86
2023/12/10 07:44:33;;;;;;;28.77;3.53;;;8.00;99.90;;;;;;5003816;28;20053;-86
2023/12/10 07:46:59;;;;;;;25.42;3.30;;;8.10;99.90;;;;;;5032039;28;20049;-86
2023/12/10 07:49:25;;;;;;;29.88;3.72;;;8.10;99.90;;;;;;5014667;28;20132;-85
2023/12/10 07:51:51;;;;;;;20.70;4.18;;;8.10;99.90;;;;;;4998834;28;20042;-86
2023/12/10 07:54:16;;;;;;;24.27;2.95;;;8.10;99.90;;;;;;5004011;28;20497;-86
2023/12/10 07:56:42;;;;;;;18.80;2.42;;;8.10;99.90;;;;;;5032245;28;20041;-86
2023/12/10 07:59:08;;;;;;;18.85;2.78;;;8.10;99.90;;;;;;5032612;28;20076;-85
2023/12/10 08:01:33;;;;;;;20.77;1.85;;;8.20;99.90;;;;;;4981873;28;20050;-86
2023/12/10 08:03:59;;;;;;;22.63;2.38;;;8.20;99.90;;;;;;5016583;28;20046;-87
2023/12/10 08:06:25;;;;;;;19.15;2.30;;;8.20;99.90;;;;;;5010263;28;20391;-86
2023/12/10 08:08:51;;;;;;;13.95;1.85;;;8.20;99.90;;;;;;5002641;28;20475;-86
2023/12/10 08:11:17;;;;;;;14.15;1.45;;;8.20;99.90;;;;;;4999110;28;20065;-86
2023/12/10 08:13:43;;;;;;;12.68;1.30;;;8.20;99.90;;;;;;4998878;28;20045;-86
2023/12/10 08:16:09;;;;;;;9.73;0.98;;;8.20;99.90;;;;;;5000029;28;20096;-86
2023/12/10 08:18:34;;;;;;;10.20;1.10;;;8.20;99.90;;;;;;4982603;28;20465;-86
2023/12/10 08:21:03;;;;;;;13.80;2.05;;;8.20;99.90;;;;;;5016599;28;20045;-86
2023/12/10 08:23:29;;;;;;;13.50;1.38;;;8.20;99.90;;;;;;5016349;28;20045;-87
2023/12/10 08:25:55;;;;;;;15.82;1.30;;;8.20;99.90;;;;;;4999976;28;20041;-86
2023/12/10 08:28:20;;;;;;;15.35;2.70;;;8.20;99.90;;;;;;5016411;28;20231;-87
2023/12/10 08:30:46;;;;;;;13.70;1.65;;;8.20;99.90;;;;;;4999071;28;20236;-86
2023/12/10 08:33:12;;;;;;;19.77;2.03;;;8.20;99.90;;;;;;5016342;28;20466;-86
2023/12/10 08:35:38;;;;;;;15.20;1.40;;;8.20;99.90;;;;;;4999677;28;20069;-86
2023/12/10 08:38:03;;;;;;;14.77;1.50;;;8.20;99.90;;;;;;4996432;28;20116;-87
2023/12/10 08:40:29;;;;;;;7.15;1.02;;;8.20;99.90;;;;;;5005235;28;20049;-86
2023/12/10 08:42:55;;;;;;;10.48;0.82;;;8.20;99.90;;;;;;5031268;28;20109;-87
2023/12/10 08:45:22;;;;;;;16.42;1.80;;;8.20;99.90;;;;;;4998155;28;20438;-86
2023/12/10 08:47:48;;;;;;;15.80;1.67;;;8.20;99.90;;;;;;4999045;28;20096;-87
2023/12/10 08:50:13;;;;;;;16.75;1.90;;;8.30;99.90;;;;;;4998062;28;20046;-86
2023/12/10 08:52:39;;;;;;;20.38;1.85;;;8.20;99.90;;;;;;4998020;28;20050;-86
2023/12/10 08:55:05;;;;;;;22.23;1.95;;;8.20;99.90;;;;;;4997979;28;20046;-86
2023/12/10 08:57:31;;;;;;;21.60;2.33;;;8.20;99.90;;;;;;4999695;28;20081;-86
2023/12/10 09:00:00;;;;;;;18.05;2.35;;;8.20;99.90;;;;;;5034430;28;20445;-86
2023/12/10 09:02:26;;;;;;;13.48;1.63;;;8.20;99.90;;;;;;5001128;28;20049;-87
2023/12/10 09:04:51;;;;;;;19.90;2.13;;;8.20;99.90;;;;;;5017705;28;20406;-87
2023/12/10 09:07:17;;;;;;;19.17;2.10;;;8.20;99.90;;;;;;5016360;28;20132;-87
2023/12/10 09:09:43;;;;;;;18.30;1.52;;;8.30;99.90;;;;;;5032276;28;20416;-86
2023/12/10 09:12:09;;;;;;;23.40;2.33;;;8.20;99.90;;;;;;5017403;28;20050;-86
2023/12/10 09:14:36;;;;;;;19.00;2.30;;;8.20;99.90;;;;;;5016416;28;20405;-87
2023/12/10 09:17:02;;;;;;;25.17;2.78;;;8.20;99.90;;;;;;5001042;28;20045;-87
2023/12/10 09:19:29;;;;;;;15.15;2.20;;;8.20;99.90;;;;;;5015226;28;20057;-87
2023/12/10 09:21:55;;;;;;;24.70;2.45;;;8.30;99.90;;;;;;5017009;28;20049;-87
2023/12/10 09:24:22;;;;;;;31.58;2.65;;;8.20;99.90;;;;;;5017117;28;20049;-87
2023/12/10 09:26:48;;;;;;;25.70;2.70;;;8.20;99.90;;;;;;5034895;28;20046;-87
2023/12/10 09:29:14;;;;;;;26.42;3.38;;;8.20;99.90;;;;;;5033440;28;20486;-87
2023/12/10 09:31:40;;;;;;;27.75;3.20;;;8.20;99.90;;;;;;5016175;28;20029;-87
2023/12/10 09:34:06;;;;;;;21.67;3.63;;;8.20;99.90;;;;;;5017047;28;20049;-87
2023/12/10 09:36:31;;;;;;;32.80;3.47;;;8.30;99.90;;;;;;5016832;28;20037;-84
2023/12/10 09:38:57;;;;;;;26.05;3.50;;;8.30;99.90;;;;;;5017228;28;20057;-84
2023/12/10 09:41:23;;;;;;;26.60;3.08;;;8.30;99.90;;;;;;5032462;28;20490;-85
2023/12/10 09:43:48;;;;;;;24.00;2.72;;;8.20;99.90;;;;;;5034755;28;20049;-88
2023/12/10 09:46:15;;;;;;;30.80;3.28;;;8.20;99.90;;;;;;5016796;28;20049;-86
2023/12/10 09:48:41;;;;;;;32.72;2.83;;;8.20;99.90;;;;;;5016843;28;20124;-86
2023/12/10 09:51:07;;;;;;;20.15;2.70;;;8.20;99.90;;;;;;5014680;28;20049;-87
2023/12/10 09:53:33;;;;;;;21.17;2.60;;;8.20;99.90;;;;;;4995897;28;20390;-85
2023/12/10 09:55:59;;;;;;;24.88;2.35;;;8.20;99.90;;;;;;5000468;28;20120;-85
2023/12/10 09:58:25;;;;;;;18.33;2.05;;;8.20;99.90;;;;;;5011490;28;20596;-85
2023/12/10 10:00:51;;;;;;;25.33;2.67;;;8.20;99.90;;;;;;5015299;28;20049;-86
2023/12/10 10:03:18;;;;;;;19.88;2.70;;;8.20;99.90;;;;;;4997287;28;20069;-85
2023/12/10 10:05:43;;;;;;;19.13;3.20;;;8.20;99.90;;;;;;5021239;28;20065;-86
2023/12/10 10:08:09;;;;;;;30.38;2.35;;;8.20;99.90;;;;;;4999749;28;20050;-85
2023/12/10 10:10:37;;;;;;;20.88;2.63;;;8.20;99.90;;;;;;5018658;28;20124;-85
2023/12/10 10:13:06;;;;;;;18.20;1.90;;;8.10;99.90;;;;;;5003626;28;20057;-85
2023/12/10 10:15:32;;;;;;;22.75;2.60;;;8.20;99.90;;;;;;5013901;28;20042;-84
2023/12/10 10:17:58;;;;;;;14.45;2.40;;;8.20;99.90;;;;;;5014090;28;20042;-86
2023/12/10 10:20:26;;;;;;;21.70;2.33;;;8.20;99.90;;;;;;4982845;28;20089;-84
2023/12/10 10:22:54;;;;;;;19.73;2.88;;;8.20;99.90;;;;;;5015677;28;20046;-85
2023/12/10 10:25:20;;;;;;;19.30;1.90;;;8.20;99.90;;;;;;4988136;28;20336;-86
2023/12/10 10:27:48;;;;;;;25.90;2.42;;;8.20;99.90;;;;;;5001484;28;20045;-84
2023/12/10 10:30:14;;;;;;;15.52;2.83;;;8.20;99.90;;;;;;5012788;28;20100;-85
2023/12/10 10:32:41;;;;;;;20.73;2.55;;;8.20;99.90;;;;;;5009778;28;20049;-85
2023/12/10 10:35:08;;;;;;;15.10;1.83;;;8.20;99.90;;;;;;5013848;28;20121;-85
2023/12/10 10:37:34;;;;;;;27.35;2.65;;;8.20;99.90;;;;;;4996258;28;20601;-85
2023/12/10 10:39:59;;;;;;;14.30;2.13;;;8.20;99.90;;;;;;5012602;28;20100;-85
2023/12/10 10:42:25;;;;;;;22.85;2.13;;;8.20;99.90;;;;;;4960510;28;20062;-85
2023/12/10 10:44:51;;;;;;;18.13;1.55;;;8.20;99.90;;;;;;4976452;28;20058;-84
2023/12/10 10:47:18;;;;;;;17.08;2.13;;;8.20;99.90;;;;;;4976518;28;20050;-84
2023/12/10 10:49:52;;;;;;;22.67;2.40;;;8.30;99.90;;;;;;4976387;28;20487;-84
2023/12/10 10:52:24;;;;;;;20.25;2.63;;;8.30;99.90;;;;;;4966093;28;20050;-84
2023/12/10 10:54:53;;;;;;;22.15;2.45;;;8.40;99.90;;;;;;4975943;28;20491;-85
2023/12/10 10:57:29;;;;;;;16.08;1.92;;;8.40;99.90;;;;;;4976254;28;20046;-84
2023/12/10 10:59:56;;;;;;;23.35;2.88;;;8.40;99.90;;;;;;4993323;28;20069;-85
2023/12/10 11:02:22;;;;;;;18.00;2.80;;;8.40;99.90;;;;;;4976583;28;20142;-83
2023/12/10 11:04:50;;;;;;;29.35;3.70;;;8.40;99.90;;;;;;4976466;28;20111;-84
2023/12/10 11:07:19;;;;;;;25.85;3.75;;;8.40;99.90;;;;;;4993293;28;20543;-84
2023/12/10 11:09:55;;;;;;;25.85;3.63;;;8.40;99.90;;;;;;4976235;28;20054;-85
2023/12/10 11:12:43;;;;;;;;;;;8.40;99.90;;;;;;4976424;28;20081;-84
2023/12/10 11:15:18;;;;;;;37.58;4.28;;;8.30;99.90;;;;;;4976370;28;19929;-86
2023/12/10 11:17:57;;;;;;;29.08;4.60;;;8.40;99.90;;;;;;4984882;28;20101;-85
2023/12/10 11:20:47;;;;;;;20.00;3.13;;;8.40;99.90;;;;;;4978458;28;20215;-85
2023/12/10 11:23:20;;;;;;;25.45;3.55;;;8.50;99.90;;;;;;4995296;28;20053;-84
2023/12/10 11:25:47;;;;;;;27.40;3.13;;;8.50;99.90;;;;;;5012959;28;20042;-84
2023/12/10 11:28:24;;;;;;;28.45;3.85;;;8.50;99.90;;;;;;4988434;28;20108;-84
2023/12/10 11:30:49;;;;;;;32.92;3.88;;;8.60;99.90;;;;;;4959684;28;20141;-84
2023/12/10 11:33:16;;;;;;;29.60;3.78;;;8.60;99.90;;;;;;4975893;28;20141;-85
2023/12/10 11:35:42;;;;;;;28.58;3.97;;;8.60;99.90;;;;;;4970312;28;20041;-84
2023/12/10 11:38:09;;;;;;;33.85;4.47;;;8.70;99.90;;;;;;4979404;28;20046;-85
2023/12/10 11:40:34;;;;;;;35.67;3.47;;;8.60;99.90;;;;;;4977590;28;20062;-84
2023/12/10 11:43:07;;;;;;;26.10;3.53;;;8.60;99.90;;;;;;4975650;28;20108;-88
2023/12/10 11:45:34;;;;;;;27.38;2.97;;;8.60;99.90;;;;;;4993430;28;20092;-88
2023/12/10 11:50:04;;;;;;;25.92;3.20;;;8.50;99.90;;;;;;5193579;27;20427;-86
2023/12/10 11:52:32;;;;;;;24.15;3.50;;;8.50;99.90;;;;;;5175321;27;20501;-85
2023/12/10 11:54:57;;;;;;;30.75;3.78;;;8.60;99.90;;;;;;5175028;27;20053;-85
2023/12/10 11:57:23;;;;;;;34.17;4.65;;;8.60;99.90;;;;;;5193227;27;20042;-85
2023/12/10 11:59:51;;;;;;;34.45;4.80;;;8.50;99.90;;;;;;5157326;27;20049;-84
2023/12/10 12:02:17;;;;;;;22.13;3.67;;;8.60;99.90;;;;;;5174432;27;20045;-85
2023/12/10 12:04:42;;;;;;;28.77;4.30;;;8.50;99.90;;;;;;5192790;27;20367;-85
2023/12/10 12:07:28;;;;;;;23.52;4.18;;;8.50;99.90;;;;;;5192988;27;20113;-85
2023/12/10 12:09:55;;;;;;;24.42;3.70;;;8.50;99.90;;;;;;5157324;27;20057;-86
2023/12/10 12:12:21;;;;;;;23.30;3.83;;;8.50;99.90;;;;;;5174437;27;20046;-85
2023/12/10 12:14:48;;;;;;;27.67;3.78;;;8.50;99.90;;;;;;5193163;27;20050;-85
2023/12/10 12:17:17;;;;;;;24.10;4.13;;;8.50;99.90;;;;;;5156147;27;20045;-85
2023/12/10 12:19:43;;;;;;;30.52;3.83;;;8.60;99.90;;;;;;5174160;27;20435;-85
2023/12/10 12:22:10;;;;;;;32.72;3.42;;;8.60;99.90;;;;;;5174081;27;20042;-85
2023/12/10 12:24:39;;;;;;;29.77;3.92;;;8.60;99.90;;;;;;5174517;27;20083;-84
2023/12/10 12:27:09;;;;;;;34.75;4.45;;;8.60;99.90;;;;;;5174303;27;20102;-85
2023/12/10 12:29:35;;;;;;;30.63;4.13;;;8.60;99.90;;;;;;5173947;27;20046;-85
2023/12/10 12:32:02;;;;;;;24.67;3.78;;;8.60;99.90;;;;;;5192944;27;20427;-85
2023/12/10 12:34:28;;;;;;;31.25;4.10;;;8.50;99.90;;;;;;5173718;27;20134;-85
2023/12/10 12:36:55;;;;;;;34.42;4.55;;;8.50;99.90;;;;;;5173943;27;20075;-85
2023/12/10 12:39:21;;;;;;;33.47;3.90;;;8.50;99.90;;;;;;5174347;27;20050;-85
2023/12/10 12:41:47;;;;;;;28.92;4.78;;;8.50;99.90;;;;;;5156514;27;20486;-85
2023/12/10 12:44:13;;;;;;;35.83;6.05;;;8.50;99.90;;;;;;5173771;27;20129;-86
2023/12/10 12:46:42;;;;;;;34.13;4.88;;;8.50;99.90;;;;;;5192645;27;20038;-85